sensor_id;sensor_type;location;lat;lon;timestamp;pressure;altitude;pressure_sealevel;temperature;humidity
58739;BME280;44512;53.046;18.604;2022-08-21T00:07:51;101213.90;;;27.67;51.54
58739;BME280;44512;53.046;18.604;2022-08-21T00:18:19;101225.49;;;27.55;52.23
58739;BME280;44512;53.046;18.604;2022-08-21T00:28:47;101216.53;;;27.39;52.64
58739;BME280;44512;53.046;18.604;2022-08-21T00:39:15;101217.38;;;27.21;53.09
58739;BME280;44512;53.046;18.604;2022-08-21T00:49:44;101207.55;;;27.10;53.49
58739;BME280;44512;53.046;18.604;2022-08-21T01:00:17;101209.89;;;26.97;53.87
58739;BME280;44512;53.046;18.604;2022-08-21T01:10:41;101209.00;;;26.83;54.34
58739;BME280;44512;53.046;18.604;2022-08-21T01:31:38;101209.47;;;26.66;55.00
58739;BME280;44512;53.046;18.604;2022-08-21T01:42:06;101193.76;;;26.57;55.36
58739;BME280;44512;53.046;18.604;2022-08-21T01:52:34;101187.75;;;26.49;55.54
58739;BME280;44512;53.046;18.604;2022-08-21T02:03:03;101189.76;;;26.44;55.90
58739;BME280;44512;53.046;18.604;2022-08-21T02:13:31;101168.12;;;26.41;56.06
58739;BME280;44512;53.046;18.604;2022-08-21T02:23:59;101165.70;;;26.34;56.27
58739;BME280;44512;53.046;18.604;2022-08-21T02:34:27;101153.30;;;26.27;56.56
58739;BME280;44512;53.046;18.604;2022-08-21T02:44:56;101151.48;;;26.17;56.91
58739;BME280;44512;53.046;18.604;2022-08-21T02:55:26;101137.97;;;26.10;57.23
58739;BME280;44512;53.046;18.604;2022-08-21T03:05:53;101132.23;;;26.02;57.48
58739;BME280;44512;53.046;18.604;2022-08-21T03:16:21;101137.58;;;25.93;57.70
58739;BME280;44512;53.046;18.604;2022-08-21T03:26:49;101155.70;;;25.85;57.89
58739;BME280;44512;53.046;18.604;2022-08-21T03:37:17;101165.47;;;25.78;57.91
58739;BME280;44512;53.046;18.604;2022-08-21T03:47:58;101175.74;;;25.72;58.18
58739;BME280;44512;53.046;18.604;2022-08-21T03:58:16;101174.70;;;25.63;58.41
58739;BME280;44512;53.046;18.604;2022-08-21T04:08:43;101180.88;;;25.55;58.75
58739;BME280;44512;53.046;18.604;2022-08-21T04:19:12;101196.48;;;25.45;59.14
58739;BME280;44512;53.046;18.604;2022-08-21T04:29:39;101194.87;;;25.39;59.44
58739;BME280;44512;53.046;18.604;2022-08-21T04:40:09;101201.56;;;25.33;59.73
58739;BME280;44512;53.046;18.604;2022-08-21T04:50:41;101223.17;;;25.31;60.02
58739;BME280;44512;53.046;18.604;2022-08-21T05:01:08;101217.92;;;25.30;60.27
58739;BME280;44512;53.046;18.604;2022-08-21T05:11:33;101234.02;;;25.28;60.45
58739;BME280;44512;53.046;18.604;2022-08-21T05:22:01;101242.90;;;25.25;60.73
58739;BME280;44512;53.046;18.604;2022-08-21T05:32:29;101238.46;;;25.24;61.01
58739;BME280;44512;53.046;18.604;2022-08-21T05:42:59;101243.18;;;25.23;61.14
58739;BME280;44512;53.046;18.604;2022-08-21T05:53:26;101255.09;;;25.24;61.39
58739;BME280;44512;53.046;18.604;2022-08-21T06:03:54;101251.73;;;25.27;61.66
58739;BME280;44512;53.046;18.604;2022-08-21T06:14:23;101236.23;;;25.26;61.78
58739;BME280;44512;53.046;18.604;2022-08-21T06:24:51;101214.62;;;25.28;61.66
58739;BME280;44512;53.046;18.604;2022-08-21T06:35:22;101203.28;;;25.24;61.76
58739;BME280;44512;53.046;18.604;2022-08-21T06:45:48;101197.77;;;25.19;61.87
58739;BME280;44512;53.046;18.604;2022-08-21T06:56:16;101188.34;;;25.20;62.04
58739;BME280;44512;53.046;18.604;2022-08-21T07:06:44;101193.55;;;25.27;62.03
58739;BME280;44512;53.046;18.604;2022-08-21T07:17:13;101203.78;;;25.31;62.10
58739;BME280;44512;53.046;18.604;2022-08-21T07:27:41;101203.70;;;25.41;62.31
58739;BME280;44512;53.046;18.604;2022-08-21T07:38:09;101208.65;;;25.50;62.33
58739;BME280;44512;53.046;18.604;2022-08-21T07:48:38;101206.62;;;25.60;62.07
58739;BME280;44512;53.046;18.604;2022-08-21T07:59:06;101206.23;;;25.72;61.78
58739;BME280;44512;53.046;18.604;2022-08-21T08:09:34;101199.81;;;25.82;61.20
58739;BME280;44512;53.046;18.604;2022-08-21T08:20:07;101203.89;;;25.89;60.86
58739;BME280;44512;53.046;18.604;2022-08-21T08:30:31;101208.56;;;25.94;60.55
58739;BME280;44512;53.046;18.604;2022-08-21T08:41:10;101207.16;;;25.96;59.94
58739;BME280;44512;53.046;18.604;2022-08-21T09:01:56;101210.24;;;25.95;59.67
58739;BME280;44512;53.046;18.604;2022-08-21T09:33:21;101218.98;;;25.73;60.90
58739;BME280;44512;53.046;18.604;2022-08-21T09:43:53;101207.88;;;25.73;60.82
58739;BME280;44512;53.046;18.604;2022-08-21T09:54:20;101225.62;;;25.77;60.55
58739;BME280;44512;53.046;18.604;2022-08-21T10:04:55;101219.79;;;25.79;60.79
58739;BME280;44512;53.046;18.604;2022-08-21T10:15:26;101217.52;;;25.86;60.82
58739;BME280;44512;53.046;18.604;2022-08-21T10:25:52;101211.94;;;25.91;60.66
58739;BME280;44512;53.046;18.604;2022-08-21T10:36:21;101233.57;;;25.89;60.50
58739;BME280;44512;53.046;18.604;2022-08-21T11:02:29;101241.37;;;25.87;60.72
58739;BME280;44512;53.046;18.604;2022-08-21T11:12:55;101241.14;;;25.78;60.85
58739;BME280;44512;53.046;18.604;2022-08-21T11:23:25;101251.02;;;25.89;60.86
58739;BME280;44512;53.046;18.604;2022-08-21T11:54:48;101251.02;;;25.89;60.06
58739;BME280;44512;53.046;18.604;2022-08-21T12:15:41;101241.70;;;25.80;59.36
58739;BME280;44512;53.046;18.604;2022-08-21T12:26:23;101241.75;;;25.70;59.08
58739;BME280;44512;53.046;18.604;2022-08-21T12:36:46;101252.62;;;25.61;59.09
58739;BME280;44512;53.046;18.604;2022-08-21T12:57:36;101265.23;;;25.43;59.01
58739;BME280;44512;53.046;18.604;2022-08-21T13:08:09;101267.73;;;25.40;59.06
58739;BME280;44512;53.046;18.604;2022-08-21T13:18:33;101281.32;;;25.36;59.43
58739;BME280;44512;53.046;18.604;2022-08-21T13:29:08;101284.66;;;25.38;59.31
58739;BME280;44512;53.046;18.604;2022-08-21T13:39:27;101299.04;;;25.40;58.92
58739;BME280;44512;53.046;18.604;2022-08-21T13:49:55;101310.98;;;25.36;58.32
58739;BME280;44512;53.046;18.604;2022-08-21T14:00:29;101317.91;;;25.38;57.29
58739;BME280;44512;53.046;18.604;2022-08-21T14:10:52;101329.58;;;25.30;56.52
58739;BME280;44512;53.046;18.604;2022-08-21T14:31:54;101347.12;;;24.95;55.19
58739;BME280;44512;53.046;18.604;2022-08-21T14:42:17;101351.88;;;24.79;55.11
58739;BME280;44512;53.046;18.604;2022-08-21T14:52:45;101348.02;;;24.65;55.34
58739;BME280;44512;53.046;18.604;2022-08-21T15:03:14;101340.31;;;24.47;55.77
58739;BME280;44512;53.046;18.604;2022-08-21T15:13:43;101327.61;;;24.35;56.05
58739;BME280;44512;53.046;18.604;2022-08-21T15:24:10;101341.67;;;24.24;56.48
58739;BME280;44512;53.046;18.604;2022-08-21T15:34:39;101345.30;;;24.19;56.66
58739;BME280;44512;53.046;18.604;2022-08-21T15:45:09;101343.06;;;24.16;57.03
58739;BME280;44512;53.046;18.604;2022-08-21T15:55:35;101350.24;;;24.12;57.36
58739;BME280;44512;53.046;18.604;2022-08-21T16:06:04;101363.52;;;24.05;57.65
58739;BME280;44512;53.046;18.604;2022-08-21T16:16:33;101373.76;;;23.99;57.77
58739;BME280;44512;53.046;18.604;2022-08-21T16:27:02;101372.63;;;23.90;57.74
58739;BME280;44512;53.046;18.604;2022-08-21T16:37:29;101386.71;;;23.78;57.48
58739;BME280;44512;53.046;18.604;2022-08-21T16:47:57;101412.63;;;23.67;57.54
58739;BME280;44512;53.046;18.604;2022-08-21T16:58:34;101400.43;;;23.58;57.69
58739;BME280;44512;53.046;18.604;2022-08-21T17:08:54;101402.05;;;23.49;57.56
58739;BME280;44512;53.046;18.604;2022-08-21T17:19:22;101416.34;;;23.35;57.50
58739;BME280;44512;53.046;18.604;2022-08-21T17:29:50;101442.52;;;23.23;57.55
58739;BME280;44512;53.046;18.604;2022-08-21T17:40:19;101450.47;;;23.14;57.60
58739;BME280;44512;53.046;18.604;2022-08-21T17:50:47;101465.84;;;23.00;57.82
58739;BME280;44512;53.046;18.604;2022-08-21T18:01:17;101464.11;;;22.88;58.05
58739;BME280;44512;53.046;18.604;2022-08-21T18:11:44;101464.82;;;22.79;58.25
58739;BME280;44512;53.046;18.604;2022-08-21T18:22:12;101462.26;;;22.67;58.45
58739;BME280;44512;53.046;18.604;2022-08-21T18:32:41;101467.17;;;22.60;58.73
58739;BME280;44512;53.046;18.604;2022-08-21T18:43:11;101481.75;;;22.55;58.91
58739;BME280;44512;53.046;18.604;2022-08-21T18:53:38;101477.48;;;22.43;59.02
58739;BME280;44512;53.046;18.604;2022-08-21T19:04:06;101476.86;;;22.35;59.40
58739;BME280;44512;53.046;18.604;2022-08-21T19:14:34;101471.25;;;22.25;60.47
58739;BME280;44512;53.046;18.604;2022-08-21T19:25:03;101477.32;;;22.27;60.76
58739;BME280;44512;53.046;18.604;2022-08-21T19:35:31;101483.38;;;22.24;60.47
58739;BME280;44512;53.046;18.604;2022-08-21T19:45:59;101483.06;;;22.21;60.39
58739;BME280;44512;53.046;18.604;2022-08-21T19:56:29;101478.64;;;22.20;60.16
58739;BME280;44512;53.046;18.604;2022-08-21T20:06:56;101488.24;;;22.17;59.76
58739;BME280;44512;53.046;18.604;2022-08-21T20:17:25;101487.04;;;22.08;59.71
58739;BME280;44512;53.046;18.604;2022-08-21T20:27:52;101489.20;;;22.06;59.63
58739;BME280;44512;53.046;18.604;2022-08-21T20:38:21;101493.56;;;22.02;59.65
58739;BME280;44512;53.046;18.604;2022-08-21T20:48:50;101498.98;;;21.92;58.86
58739;BME280;44512;53.046;18.604;2022-08-21T21:09:48;101505.90;;;21.72;57.95
58739;BME280;44512;53.046;18.604;2022-08-21T21:20:29;101498.33;;;21.63;57.94
58739;BME280;44512;53.046;18.604;2022-08-21T21:30:44;101500.95;;;21.52;58.03
58739;BME280;44512;53.046;18.604;2022-08-21T21:41:19;101493.94;;;21.45;58.01
58739;BME280;44512;53.046;18.604;2022-08-21T22:23:16;101495.15;;;20.98;59.23
58739;BME280;44512;53.046;18.604;2022-08-21T22:33:32;101497.33;;;20.96;58.95
58739;BME280;44512;53.046;18.604;2022-08-21T22:44:03;101505.94;;;20.83;58.23
58739;BME280;44512;53.046;18.604;2022-08-21T22:54:34;101501.84;;;20.69;57.96
58739;BME280;44512;53.046;18.604;2022-08-21T23:05:14;101501.31;;;20.55;57.78
58739;BME280;44512;53.046;18.604;2022-08-21T23:15:33;101499.59;;;20.37;57.80
